Main page
METAR-TAF:

METAR-TAF

Airports :

MidCoast Regional Airport / Wright Army Airfield

Hinesville, Georgia, United States

latitude: 31-53N, longitude: 081-34W, elevation: 46 ft

Current weather observation

The report was made 40 minutes ago, at 09:55 UTC
Calm wind
Temperature 79°F
Humidity 94%
Pressure 30.07 in. Hg
Visibility: 10 miles
Overcast at a height of 10000 ft

METAR: KLHW 130955Z AUTO 00000KT 10SM OVC100 26/25 A3007 RMK AO2 SLP185 T02570248 $

Time: 06:35 (10:35 UTC)


TAF: missing

Weather observations and forecasts of more than 4000 airports (METAR and TAF reports).

The available stations are represented by yellow and red dots on the map.

Hover mouse over dot to see the name of the station.

Then click to see weather observations and forecasts.

To change the map : click on the green buttons with a black cross to zoom in, on the green button with a dash to zoom out, or on the green arrows for adjacent maps.


METAR-TAF: